createdAt,value
2018-02-27T00:00:40.748Z,1009.85
2018-02-27T00:01:40.757Z,1009.83
2018-02-27T00:02:40.780Z,1009.77
2018-02-27T00:03:40.770Z,1009.77
2018-02-27T00:04:40.786Z,1009.75
2018-02-27T00:05:40.796Z,1009.74
2018-02-27T00:06:40.780Z,1009.72
2018-02-27T00:07:40.797Z,1009.73
2018-02-27T00:08:40.793Z,1009.69
2018-02-27T00:09:40.821Z,1009.71
2018-02-27T00:10:40.804Z,1009.70
2018-02-27T00:11:40.828Z,1009.70
2018-02-27T00:12:40.825Z,1009.63
2018-02-27T00:13:40.868Z,1009.66
2018-02-27T00:14:40.839Z,1009.64
2018-02-27T00:15:40.847Z,1009.61
2018-02-27T00:16:40.868Z,1009.60
2018-02-27T00:17:40.876Z,1009.58
2018-02-27T00:18:40.871Z,1009.60
2018-02-27T00:19:40.878Z,1009.61
2018-02-27T00:20:40.892Z,1009.60
2018-02-27T00:21:40.898Z,1009.60
2018-02-27T00:22:40.903Z,1009.61
2018-02-27T00:23:40.919Z,1009.63
2018-02-27T00:24:40.917Z,1009.59
2018-02-27T00:25:40.921Z,1009.61
2018-02-27T00:26:40.934Z,1009.57
2018-02-27T00:27:40.952Z,1009.57
2018-02-27T00:28:40.973Z,1009.60
2018-02-27T00:29:40.952Z,1009.61
2018-02-27T00:30:40.987Z,1009.55
2018-02-27T00:31:40.965Z,1009.52
2018-02-27T00:32:40.984Z,1009.52
2018-02-27T00:33:40.985Z,1009.51
2018-02-27T00:34:41.005Z,1009.54
2018-02-27T00:35:41.028Z,1009.56
2018-02-27T00:36:41.021Z,1009.49
2018-02-27T00:37:41.013Z,1009.53
2018-02-27T00:38:41.017Z,1009.51
2018-02-27T00:39:41.071Z,1009.50
2018-02-27T00:40:41.031Z,1009.51
2018-02-27T00:41:41.040Z,1009.44
2018-02-27T00:42:41.048Z,1009.42
2018-02-27T00:43:41.058Z,1009.36
2018-02-27T00:44:41.060Z,1009.39
2018-02-27T00:45:41.072Z,1009.43
2018-02-27T00:46:41.072Z,1009.38
2018-02-27T00:47:41.112Z,1009.40
2018-02-27T00:48:41.093Z,1009.41
2018-02-27T00:49:41.099Z,1009.39
2018-02-27T00:50:41.113Z,1009.37
2018-02-27T00:51:41.120Z,1009.38
2018-02-27T00:52:41.124Z,1009.35
2018-02-27T00:53:41.148Z,1009.32
2018-02-27T00:54:41.168Z,1009.34
2018-02-27T00:55:41.137Z,1009.35
2018-02-27T00:56:41.222Z,1009.35
2018-02-27T00:57:41.163Z,1009.38
2018-02-27T00:58:41.159Z,1009.34
2018-02-27T00:59:41.192Z,1009.31
2018-02-27T01:00:41.184Z,1009.33
2018-02-27T01:01:41.183Z,1009.31
2018-02-27T01:02:41.200Z,1009.30
2018-02-27T01:03:41.203Z,1009.35
2018-02-27T01:04:41.225Z,1009.28
2018-02-27T01:05:41.212Z,1009.29
2018-02-27T01:06:41.232Z,1009.24
2018-02-27T01:07:41.227Z,1009.29
2018-02-27T01:08:41.246Z,1009.27
2018-02-27T01:09:41.246Z,1009.26
2018-02-27T01:10:41.255Z,1009.24
2018-02-27T01:11:41.258Z,1009.21
2018-02-27T01:12:41.260Z,1009.19
2018-02-27T01:13:41.276Z,1009.23
2018-02-27T01:14:41.291Z,1009.22
2018-02-27T01:15:41.285Z,1009.19
2018-02-27T01:16:41.300Z,1009.21
2018-02-27T01:17:41.409Z,1009.23
2018-02-27T01:18:41.310Z,1009.19
2018-02-27T01:19:41.320Z,1009.18
2018-02-27T01:20:41.329Z,1009.16
2018-02-27T01:21:41.329Z,1009.17
2018-02-27T01:22:41.338Z,1009.18
2018-02-27T01:23:41.344Z,1009.16
2018-02-27T01:24:41.353Z,1009.19
2018-02-27T01:25:41.365Z,1009.16
2018-02-27T01:26:41.371Z,1009.11
2018-02-27T01:27:41.371Z,1009.10
2018-02-27T01:28:41.380Z,1009.10
2018-02-27T01:29:41.383Z,1009.12
2018-02-27T01:30:41.413Z,1009.09
2018-02-27T01:31:41.415Z,1009.12
2018-02-27T01:32:41.410Z,1009.10
2018-02-27T01:33:41.438Z,1009.09
2018-02-27T01:34:41.429Z,1009.15
2018-02-27T01:35:41.446Z,1009.16
2018-02-27T01:36:41.455Z,1009.16
2018-02-27T01:37:41.450Z,1009.11
2018-02-27T01:38:41.458Z,1009.15
2018-02-27T01:39:41.454Z,1009.10
2018-02-27T01:40:41.459Z,1009.16
2018-02-27T01:41:41.475Z,1009.16
2018-02-27T01:42:41.481Z,1009.12
2018-02-27T01:43:41.481Z,1009.17
2018-02-27T01:44:41.501Z,1009.16
2018-02-27T01:45:41.493Z,1009.16
2018-02-27T01:46:41.516Z,1009.15
2018-02-27T01:47:41.507Z,1009.14
2018-02-27T01:48:41.532Z,1009.14
2018-02-27T01:49:41.530Z,1009.17
2018-02-27T01:50:41.541Z,1009.12
2018-02-27T01:51:41.530Z,1009.13
2018-02-27T01:52:41.539Z,1009.08
2018-02-27T01:53:41.555Z,1009.09
2018-02-27T01:54:41.561Z,1009.11
2018-02-27T01:55:41.618Z,1009.12
2018-02-27T01:56:41.572Z,1009.14
2018-02-27T01:57:41.608Z,1009.10
2018-02-27T01:58:41.611Z,1009.10
2018-02-27T01:59:41.592Z,1009.10
2018-02-27T02:00:41.600Z,1009.07
2018-02-27T02:01:41.616Z,1009.08
2018-02-27T02:02:41.614Z,1009.08
2018-02-27T02:03:41.649Z,1009.07
2018-02-27T02:04:41.620Z,1009.05
2018-02-27T02:05:41.626Z,1009.03
2018-02-27T02:06:41.656Z,1009.05
2018-02-27T02:07:41.642Z,1009.04
2018-02-27T02:08:41.651Z,1009.00
2018-02-27T02:09:41.661Z,1009.01
2018-02-27T02:10:41.760Z,1009.00
2018-02-27T02:11:41.690Z,1008.99
2018-02-27T02:12:41.694Z,1008.99
2018-02-27T02:13:41.695Z,1009.02
2018-02-27T02:14:41.729Z,1008.99
2018-02-27T02:15:41.698Z,1008.95
2018-02-27T02:16:41.699Z,1008.96
2018-02-27T02:17:41.719Z,1008.93
2018-02-27T02:18:41.735Z,1008.92
2018-02-27T02:19:41.730Z,1008.89
2018-02-27T02:20:41.724Z,1008.89
2018-02-27T02:21:41.728Z,1008.84
2018-02-27T02:22:41.747Z,1008.86
2018-02-27T02:23:41.763Z,1008.84
2018-02-27T02:24:41.772Z,1008.82
2018-02-27T02:25:41.766Z,1008.83
2018-02-27T02:26:41.787Z,1008.84
2018-02-27T02:27:41.779Z,1008.87
2018-02-27T02:28:41.803Z,1008.82
2018-02-27T02:29:41.797Z,1008.82
2018-02-27T02:30:41.788Z,1008.84
2018-02-27T02:31:41.818Z,1008.80
2018-02-27T02:32:41.808Z,1008.82
2018-02-27T02:33:41.808Z,1008.82
2018-02-27T02:34:41.847Z,1008.81
2018-02-27T02:35:41.835Z,1008.75
2018-02-27T02:36:41.833Z,1008.77
2018-02-27T02:37:41.837Z,1008.79
2018-02-27T02:38:41.840Z,1008.82
2018-02-27T02:39:41.853Z,1008.79
2018-02-27T02:40:41.853Z,1008.81
2018-02-27T02:41:41.861Z,1008.81
2018-02-27T02:42:41.875Z,1008.77
2018-02-27T02:43:41.871Z,1008.79
2018-02-27T02:44:41.887Z,1008.75
2018-02-27T02:45:41.888Z,1008.75
2018-02-27T02:46:41.921Z,1008.78
2018-02-27T02:47:41.906Z,1008.75
2018-02-27T02:48:41.914Z,1008.77
2018-02-27T02:49:41.914Z,1008.72
2018-02-27T02:50:41.927Z,1008.78
2018-02-27T02:51:41.941Z,1008.73
2018-02-27T02:52:41.941Z,1008.69
2018-02-27T02:53:41.957Z,1008.70
2018-02-27T02:54:41.946Z,1008.74
2018-02-27T02:55:41.966Z,1008.71
2018-02-27T02:56:41.966Z,1008.67
2018-02-27T02:57:42.057Z,1008.66
2018-02-27T02:58:41.988Z,1008.65
2018-02-27T02:59:41.981Z,1008.65
2018-02-27T03:00:41.993Z,1008.64
2018-02-27T03:01:41.991Z,1008.67
2018-02-27T03:02:42.028Z,1008.72
2018-02-27T03:03:42.003Z,1008.67
2018-02-27T03:04:42.010Z,1008.63
2018-02-27T03:05:42.017Z,1008.68
2018-02-27T03:06:42.033Z,1008.64
2018-02-27T03:07:42.038Z,1008.67
2018-02-27T03:08:42.035Z,1008.63
2018-02-27T03:09:42.052Z,1008.64
2018-02-27T03:10:42.070Z,1008.64
2018-02-27T03:11:42.069Z,1008.66
2018-02-27T03:12:42.060Z,1008.64
2018-02-27T03:13:42.067Z,1008.64
2018-02-27T03:14:42.082Z,1008.63
2018-02-27T03:15:42.091Z,1008.59
2018-02-27T03:16:42.104Z,1008.57
2018-02-27T03:17:42.100Z,1008.61
2018-02-27T03:18:42.106Z,1008.57
2018-02-27T03:19:42.119Z,1008.52
2018-02-27T03:20:42.117Z,1008.54
2018-02-27T03:21:42.137Z,1008.56
2018-02-27T03:22:42.134Z,1008.49
2018-02-27T03:23:42.140Z,1008.47
2018-02-27T03:24:42.165Z,1008.46
2018-02-27T03:25:42.148Z,1008.51
2018-02-27T03:26:42.200Z,1008.49
2018-02-27T03:27:42.180Z,1008.52
2018-02-27T03:28:42.174Z,1008.53
2018-02-27T03:29:42.177Z,1008.51
2018-02-27T03:30:42.188Z,1008.47
2018-02-27T03:31:42.190Z,1008.44
2018-02-27T03:32:42.192Z,1008.42
2018-02-27T03:33:42.201Z,1008.46
2018-02-27T03:34:42.234Z,1008.44
2018-02-27T03:35:42.215Z,1008.40
2018-02-27T03:36:42.222Z,1008.41
2018-02-27T03:37:42.233Z,1008.42
2018-02-27T03:38:42.238Z,1008.43
2018-02-27T03:39:42.248Z,1008.48
2018-02-27T03:40:42.245Z,1008.42
2018-02-27T03:41:42.259Z,1008.42
2018-02-27T03:42:42.286Z,1008.42
2018-02-27T03:43:42.279Z,1008.39
2018-02-27T03:44:42.274Z,1008.43
2018-02-27T03:45:42.287Z,1008.41
2018-02-27T03:46:42.290Z,1008.44
2018-02-27T03:47:42.296Z,1008.43
2018-02-27T03:48:42.348Z,1008.39
2018-02-27T03:49:42.314Z,1008.42
2018-02-27T03:50:42.324Z,1008.35
2018-02-27T03:51:42.345Z,1008.33
2018-02-27T03:52:42.326Z,1008.33
2018-02-27T03:53:42.332Z,1008.31
2018-02-27T03:54:42.345Z,1008.35
2018-02-27T03:55:42.349Z,1008.32
2018-02-27T03:56:42.358Z,1008.32
2018-02-27T03:57:42.356Z,1008.31
2018-02-27T03:58:42.381Z,1008.34
2018-02-27T03:59:42.378Z,1008.32
2018-02-27T04:00:42.382Z,1008.29
2018-02-27T04:01:42.431Z,1008.32
2018-02-27T04:02:42.392Z,1008.32
2018-02-27T04:03:42.418Z,1008.34
2018-02-27T04:04:42.404Z,1008.33
2018-02-27T04:05:42.416Z,1008.31
2018-02-27T04:06:42.443Z,1008.35
2018-02-27T04:07:42.426Z,1008.39
2018-02-27T04:08:42.442Z,1008.35
2018-02-27T04:09:42.443Z,1008.35
2018-02-27T04:10:42.460Z,1008.31
2018-02-27T04:11:42.453Z,1008.29
2018-02-27T04:12:42.475Z,1008.28
2018-02-27T04:13:42.467Z,1008.27
2018-02-27T04:14:42.475Z,1008.26
2018-02-27T04:15:42.478Z,1008.23
2018-02-27T04:16:42.531Z,1008.23
2018-02-27T04:17:42.511Z,1008.24
2018-02-27T04:18:42.493Z,1008.25
2018-02-27T04:19:42.502Z,1008.23
2018-02-27T04:20:42.549Z,1008.22
2018-02-27T04:21:42.520Z,1008.26
2018-02-27T04:22:42.542Z,1008.26
2018-02-27T04:23:42.528Z,1008.27
2018-02-27T04:24:42.539Z,1008.27
2018-02-27T04:25:42.538Z,1008.28
2018-02-27T04:26:42.553Z,1008.26
2018-02-27T04:27:42.551Z,1008.28
2018-02-27T04:28:42.603Z,1008.27
2018-02-27T04:29:42.612Z,1008.26
2018-02-27T04:30:42.582Z,1008.25
2018-02-27T04:31:42.587Z,1008.27
2018-02-27T04:32:42.582Z,1008.23
2018-02-27T04:33:42.592Z,1008.30
2018-02-27T04:34:42.603Z,1008.31
2018-02-27T04:35:42.677Z,1008.26
2018-02-27T04:36:42.623Z,1008.28
2018-02-27T04:37:42.628Z,1008.29
2018-02-27T04:38:42.647Z,1008.25
2018-02-27T04:39:42.623Z,1008.23
2018-02-27T04:40:42.637Z,1008.21
2018-02-27T04:41:42.678Z,1008.19
2018-02-27T04:42:42.653Z,1008.20
2018-02-27T04:43:42.676Z,1008.17
2018-02-27T04:44:42.661Z,1008.17
2018-02-27T04:45:42.662Z,1008.17
2018-02-27T04:46:42.670Z,1008.17
2018-02-27T04:47:42.700Z,1008.17
2018-02-27T04:48:42.692Z,1008.16
2018-02-27T04:49:42.700Z,1008.17
2018-02-27T04:50:42.710Z,1008.19
2018-02-27T04:51:42.700Z,1008.16
2018-02-27T04:52:42.720Z,1008.11
2018-02-27T04:53:42.726Z,1008.19
2018-02-27T04:54:42.734Z,1008.22
2018-02-27T04:55:42.728Z,1008.17
2018-02-27T04:56:42.732Z,1008.13
2018-02-27T04:57:42.758Z,1008.17
2018-02-27T04:58:42.743Z,1008.20
2018-02-27T04:59:42.763Z,1008.16
2018-02-27T05:00:42.755Z,1008.15
2018-02-27T05:01:42.768Z,1008.13
2018-02-27T05:02:42.769Z,1008.12
2018-02-27T05:03:42.775Z,1008.16
2018-02-27T05:04:42.808Z,1008.15
2018-02-27T05:05:42.789Z,1008.18
2018-02-27T05:06:42.803Z,1008.18
2018-02-27T05:07:42.804Z,1008.16
2018-02-27T05:08:42.826Z,1008.24
2018-02-27T05:09:42.842Z,1008.21
2018-02-27T05:10:42.823Z,1008.22
2018-02-27T05:11:42.838Z,1008.20
2018-02-27T05:12:42.840Z,1008.15
2018-02-27T05:13:42.879Z,1008.21
2018-02-27T05:14:42.865Z,1008.14
2018-02-27T05:15:42.851Z,1008.14
2018-02-27T05:16:42.857Z,1008.15
2018-02-27T05:17:42.862Z,1008.18
2018-02-27T05:18:42.882Z,1008.18
2018-02-27T05:19:42.891Z,1008.19
2018-02-27T05:20:42.885Z,1008.17
2018-02-27T05:21:42.885Z,1008.15
2018-02-27T05:22:42.899Z,1008.12
2018-02-27T05:23:42.911Z,1008.19
2018-02-27T05:24:42.942Z,1008.19
2018-02-27T05:25:42.916Z,1008.21
2018-02-27T05:26:42.925Z,1008.16
2018-02-27T05:27:42.926Z,1008.14
2018-02-27T05:28:42.926Z,1008.12
2018-02-27T05:29:42.934Z,1008.13
2018-02-27T05:30:42.941Z,1008.11
2018-02-27T05:31:42.945Z,1008.09
2018-02-27T05:32:42.960Z,1008.16
2018-02-27T05:33:42.979Z,1008.15
2018-02-27T05:34:43.000Z,1008.14
2018-02-27T05:35:43.015Z,1008.14
2018-02-27T05:36:42.980Z,1008.18
2018-02-27T05:37:42.978Z,1008.15
2018-02-27T05:38:43.006Z,1008.16
2018-02-27T05:39:43.000Z,1008.17
2018-02-27T05:40:43.008Z,1008.16
2018-02-27T05:41:43.020Z,1008.21
2018-02-27T05:42:43.025Z,1008.17
2018-02-27T05:43:43.020Z,1008.18
2018-02-27T05:44:43.036Z,1008.15
2018-02-27T05:45:43.049Z,1008.17
2018-02-27T05:46:43.051Z,1008.20
2018-02-27T05:47:43.052Z,1008.21
2018-02-27T05:48:43.057Z,1008.22
2018-02-27T05:49:43.085Z,1008.20
2018-02-27T05:50:43.069Z,1008.26
2018-02-27T05:51:43.075Z,1008.24
2018-02-27T05:52:43.088Z,1008.26
2018-02-27T05:53:43.116Z,1008.24
2018-02-27T05:54:43.089Z,1008.29
2018-02-27T05:55:43.108Z,1008.29
2018-02-27T05:56:43.102Z,1008.29
2018-02-27T05:57:43.116Z,1008.27
2018-02-27T05:58:43.133Z,1008.28
2018-02-27T05:59:43.125Z,1008.30
2018-02-27T06:00:43.147Z,1008.32
2018-02-27T06:01:43.136Z,1008.31
2018-02-27T06:02:43.155Z,1008.30
2018-02-27T06:03:43.144Z,1008.31
2018-02-27T06:04:43.173Z,1008.31
2018-02-27T06:05:43.155Z,1008.35
2018-02-27T06:06:43.169Z,1008.33
2018-02-27T06:07:43.162Z,1008.34
2018-02-27T06:08:43.178Z,1008.36
2018-02-27T06:09:43.240Z,1008.36
2018-02-27T06:10:43.182Z,1008.37
2018-02-27T06:11:43.198Z,1008.33
2018-02-27T06:12:43.198Z,1008.39
2018-02-27T06:13:43.198Z,1008.36
2018-02-27T06:14:43.225Z,1008.37
2018-02-27T06:15:43.221Z,1008.42
2018-02-27T06:16:43.221Z,1008.35
2018-02-27T06:17:43.224Z,1008.42
2018-02-27T06:18:43.270Z,1008.45
2018-02-27T06:19:43.267Z,1008.40
2018-02-27T06:20:43.245Z,1008.38
2018-02-27T06:21:43.258Z,1008.40
2018-02-27T06:22:43.309Z,1008.41
2018-02-27T06:23:43.275Z,1008.38
2018-02-27T06:24:43.273Z,1008.38
2018-02-27T06:25:43.282Z,1008.36
2018-02-27T06:26:43.305Z,1008.38
2018-02-27T06:27:43.300Z,1008.41
2018-02-27T06:28:43.304Z,1008.43
2018-02-27T06:29:43.337Z,1008.40
2018-02-27T06:30:43.309Z,1008.46
2018-02-27T06:31:43.330Z,1008.42
2018-02-27T06:32:43.331Z,1008.43
2018-02-27T06:33:43.335Z,1008.46
2018-02-27T06:34:43.341Z,1008.43
2018-02-27T06:35:43.340Z,1008.40
2018-02-27T06:36:43.345Z,1008.42
2018-02-27T06:37:43.362Z,1008.39
2018-02-27T06:38:43.362Z,1008.47
2018-02-27T06:39:43.380Z,1008.47
2018-02-27T06:40:43.369Z,1008.46
2018-02-27T06:41:43.383Z,1008.49
2018-02-27T06:42:43.394Z,1008.46
2018-02-27T06:43:43.391Z,1008.49
2018-02-27T06:44:43.402Z,1008.48
2018-02-27T06:45:43.404Z,1008.52
2018-02-27T06:46:43.440Z,1008.54
2018-02-27T06:47:43.419Z,1008.58
2018-02-27T06:48:43.422Z,1008.58
2018-02-27T06:49:43.426Z,1008.60
2018-02-27T06:50:43.436Z,1008.58
2018-02-27T06:51:43.458Z,1008.54
2018-02-27T06:52:43.457Z,1008.56
2018-02-27T06:53:43.452Z,1008.53
2018-02-27T06:54:43.464Z,1008.55
2018-02-27T06:55:43.469Z,1008.67
2018-02-27T06:56:43.476Z,1009.05
2018-02-27T06:57:43.495Z,1009.29
2018-02-27T06:58:43.508Z,1009.34
2018-02-27T06:59:43.512Z,1009.40
2018-02-27T07:00:43.507Z,1009.44
2018-02-27T07:01:43.529Z,1009.44
2018-02-27T07:02:43.520Z,1009.50
2018-02-27T07:03:43.521Z,1009.45
2018-02-27T07:04:43.538Z,1009.46
2018-02-27T07:05:43.544Z,1009.51
2018-02-27T07:06:43.568Z,1009.54
2018-02-27T07:07:43.588Z,1009.57
2018-02-27T07:08:43.568Z,1009.60
2018-02-27T07:09:43.581Z,1009.68
2018-02-27T07:10:43.613Z,1009.71
2018-02-27T07:11:43.606Z,1009.67
2018-02-27T07:12:43.625Z,1009.70
2018-02-27T07:13:43.636Z,1009.74
2018-02-27T07:14:43.639Z,1009.71
2018-02-27T07:15:43.649Z,1009.64
2018-02-27T07:16:43.667Z,1009.74
2018-02-27T07:17:43.673Z,1009.74
2018-02-27T07:18:43.685Z,1009.73
2018-02-27T07:19:43.698Z,1009.74
2018-02-27T07:20:43.714Z,1009.83
2018-02-27T07:21:43.732Z,1009.75
2018-02-27T07:22:43.738Z,1009.65
2018-02-27T07:23:43.786Z,1009.60
2018-02-27T07:24:43.785Z,1009.44
2018-02-27T07:25:43.778Z,1009.77
2018-02-27T07:26:43.806Z,1009.80
2018-02-27T07:27:43.816Z,1009.79
2018-02-27T07:28:43.816Z,1009.80
2018-02-27T07:29:43.851Z,1009.86
2018-02-27T07:30:43.856Z,1009.89
2018-02-27T07:31:43.877Z,1009.81
2018-02-27T07:32:43.878Z,1009.73
2018-02-27T07:33:43.895Z,1009.70
2018-02-27T07:34:43.903Z,1009.70
2018-02-27T07:35:43.919Z,1009.76
2018-02-27T07:36:43.948Z,1009.80
2018-02-27T07:37:43.951Z,1009.85
2018-02-27T07:38:43.962Z,1009.68
2018-02-27T07:39:43.987Z,1009.80
2018-02-27T07:40:43.994Z,1009.79
2018-02-27T07:41:44.005Z,1009.73
2018-02-27T07:42:44.031Z,1009.80
2018-02-27T07:43:44.045Z,1009.73
2018-02-27T07:44:44.063Z,1009.14
2018-02-27T07:45:44.095Z,1009.64
2018-02-27T07:46:44.101Z,1009.75
2018-02-27T07:47:44.109Z,1009.89
2018-02-27T07:48:44.119Z,1009.99
2018-02-27T07:49:44.136Z,1009.68
2018-02-27T07:50:44.156Z,1009.91
2018-02-27T07:51:44.160Z,1009.63
2018-02-27T07:52:44.183Z,1009.50
2018-02-27T07:53:44.205Z,1009.49
2018-02-27T07:54:44.230Z,1009.46
2018-02-27T07:55:44.226Z,1009.46
2018-02-27T07:56:44.244Z,1009.26
2018-02-27T07:57:44.260Z,1009.34
2018-02-27T07:58:44.274Z,1009.30
2018-02-27T07:59:44.297Z,1009.28
2018-02-27T08:00:44.301Z,1009.30
2018-02-27T08:01:44.323Z,1009.29
2018-02-27T08:02:44.352Z,1009.24
2018-02-27T08:03:44.355Z,1009.25
2018-02-27T08:04:44.373Z,1009.38
2018-02-27T08:05:44.391Z,1009.47
2018-02-27T08:06:44.402Z,1009.54
2018-02-27T08:07:44.422Z,1009.57
2018-02-27T08:08:44.436Z,1009.54
2018-02-27T08:09:44.463Z,1009.50
2018-02-27T08:10:44.550Z,1009.51
2018-02-27T08:11:44.493Z,1009.43
2018-02-27T08:12:44.515Z,1009.31
2018-02-27T08:13:44.530Z,1009.27
2018-02-27T08:14:44.543Z,1009.23
2018-02-27T08:15:44.590Z,1009.23
2018-02-27T08:16:44.594Z,1009.13
2018-02-27T08:17:44.594Z,1009.16
2018-02-27T08:18:44.606Z,1009.15
2018-02-27T08:19:44.627Z,1009.17
2018-02-27T08:20:44.641Z,1009.18
2018-02-27T08:21:44.689Z,1009.19
2018-02-27T08:22:44.676Z,1009.23
2018-02-27T08:23:44.690Z,1009.19
2018-02-27T08:24:44.725Z,1009.17
2018-02-27T08:25:44.742Z,1009.19
2018-02-27T08:26:44.746Z,1009.14
2018-02-27T08:27:44.829Z,1009.18
2018-02-27T08:28:44.779Z,1009.14
2018-02-27T08:29:44.790Z,1009.13
2018-02-27T08:30:44.811Z,1009.04
2018-02-27T08:31:44.816Z,1009.05
2018-02-27T08:32:44.839Z,1009.07
2018-02-27T08:33:44.868Z,1009.00
2018-02-27T08:34:44.875Z,1008.99
2018-02-27T08:35:44.887Z,1009.03
2018-02-27T08:36:44.900Z,1008.98
2018-02-27T08:37:44.919Z,1008.99
2018-02-27T08:38:44.950Z,1008.91
2018-02-27T08:39:44.975Z,1008.84
2018-02-27T08:40:44.990Z,1008.74
2018-02-27T08:41:45.033Z,1008.69
2018-02-27T08:42:45.023Z,1008.67
2018-02-27T08:43:45.041Z,1008.72
2018-02-27T08:44:45.041Z,1008.66
2018-02-27T08:45:45.047Z,1008.69
2018-02-27T08:46:45.108Z,1008.68
2018-02-27T08:47:45.070Z,1008.70
2018-02-27T08:48:45.083Z,1008.63
2018-02-27T08:49:45.108Z,1008.62
2018-02-27T08:50:45.122Z,1008.58
2018-02-27T08:51:45.162Z,1008.55
2018-02-27T08:52:45.152Z,1008.54
2018-02-27T08:53:45.155Z,1008.52
2018-02-27T08:54:45.180Z,1008.57
2018-02-27T08:55:45.197Z,1008.54
2018-02-27T08:56:45.205Z,1008.55
2018-02-27T08:57:45.209Z,1008.52
2018-02-27T08:58:45.224Z,1008.53
2018-02-27T08:59:45.235Z,1008.48
2018-02-27T09:00:45.248Z,1008.50
2018-02-27T09:01:45.292Z,1008.49
2018-02-27T09:02:45.286Z,1008.51
2018-02-27T09:03:45.281Z,1008.48
2018-02-27T09:04:45.306Z,1008.45
2018-02-27T09:05:45.305Z,1008.46
2018-02-27T09:06:45.333Z,1008.44
2018-02-27T09:07:45.330Z,1008.40
2018-02-27T09:08:45.354Z,1008.39
2018-02-27T09:09:45.361Z,1008.42
2018-02-27T09:10:45.375Z,1008.40
2018-02-27T09:11:45.398Z,1008.40
2018-02-27T09:12:45.394Z,1008.38
2018-02-27T09:13:45.407Z,1008.38
2018-02-27T09:14:45.434Z,1008.32
2018-02-27T09:15:45.433Z,1008.32
2018-02-27T09:16:45.456Z,1008.30
2018-02-27T09:17:45.447Z,1008.30
2018-02-27T09:18:45.502Z,1008.30
2018-02-27T09:19:45.480Z,1008.28
2018-02-27T09:20:45.480Z,1008.30
2018-02-27T09:21:45.533Z,1008.31
2018-02-27T09:22:45.540Z,1008.34
2018-02-27T09:23:45.520Z,1008.39
2018-02-27T09:24:45.524Z,1008.43
2018-02-27T09:25:45.536Z,1008.38
2018-02-27T09:26:45.548Z,1008.43
2018-02-27T09:27:45.573Z,1008.40
2018-02-27T09:28:45.572Z,1008.44
2018-02-27T09:29:45.596Z,1008.49
2018-02-27T09:30:45.635Z,1008.43
2018-02-27T09:31:45.613Z,1008.49
2018-02-27T09:32:45.625Z,1008.49
2018-02-27T09:33:45.629Z,1008.50
2018-02-27T09:34:45.663Z,1008.58
2018-02-27T09:35:45.691Z,1008.43
2018-02-27T09:36:45.673Z,1008.30
2018-02-27T09:37:45.668Z,1008.18
2018-02-27T09:38:45.786Z,1008.07
2018-02-27T09:39:45.690Z,1007.98
2018-02-27T09:40:45.705Z,1007.94
2018-02-27T09:41:45.721Z,1007.97
2018-02-27T09:42:45.719Z,1007.96
2018-02-27T09:43:45.759Z,1007.88
2018-02-27T09:44:45.769Z,1007.92
2018-02-27T09:45:45.771Z,1007.91
2018-02-27T09:46:45.776Z,1008.01
2018-02-27T09:47:45.775Z,1007.91
2018-02-27T09:48:45.811Z,1007.93
2018-02-27T09:49:45.825Z,1007.88
2018-02-27T09:50:45.823Z,1007.90
2018-02-27T09:51:45.903Z,1007.93
2018-02-27T09:52:45.829Z,1007.98
2018-02-27T09:53:45.857Z,1007.93
2018-02-27T09:54:45.870Z,1007.89
2018-02-27T09:55:45.928Z,1007.96
2018-02-27T09:56:45.894Z,1007.92
2018-02-27T09:57:45.884Z,1007.89
2018-02-27T09:58:45.912Z,1007.83
2018-02-27T09:59:45.915Z,1007.82
2018-02-27T10:00:45.920Z,1007.88
2018-02-27T10:01:45.931Z,1007.89
2018-02-27T10:02:45.948Z,1007.89
2018-02-27T10:03:45.973Z,1007.87
2018-02-27T10:04:45.958Z,1007.95
2018-02-27T10:05:45.970Z,1008.00
2018-02-27T10:06:45.995Z,1007.96
2018-02-27T10:07:46.001Z,1007.95
2018-02-27T10:08:46.009Z,1007.92
2018-02-27T10:09:46.021Z,1007.87
2018-02-27T10:10:46.016Z,1007.86
2018-02-27T10:11:46.041Z,1007.85
2018-02-27T10:12:46.057Z,1007.82
2018-02-27T10:13:46.074Z,1007.77
2018-02-27T10:14:46.060Z,1007.77
2018-02-27T10:15:46.110Z,1007.74
2018-02-27T10:16:46.083Z,1007.72
2018-02-27T10:17:46.119Z,1007.70
2018-02-27T10:18:46.110Z,1007.73
2018-02-27T10:19:46.111Z,1007.72
2018-02-27T10:20:46.140Z,1007.70
2018-02-27T10:21:46.162Z,1007.67
2018-02-27T10:22:46.151Z,1007.67
2018-02-27T10:23:46.147Z,1007.66
2018-02-27T10:24:46.175Z,1007.73
2018-02-27T10:25:46.169Z,1007.64
2018-02-27T10:26:46.200Z,1007.68
2018-02-27T10:27:46.197Z,1007.67
2018-02-27T10:28:46.207Z,1007.65
2018-02-27T10:29:46.237Z,1007.66
2018-02-27T10:30:46.287Z,1007.63
2018-02-27T10:31:46.235Z,1007.63
2018-02-27T10:32:46.249Z,1007.65
2018-02-27T10:33:46.258Z,1007.64
2018-02-27T10:34:46.280Z,1007.60
2018-02-27T10:35:46.274Z,1007.63
2018-02-27T10:36:46.320Z,1007.62
2018-02-27T10:37:46.322Z,1007.68
2018-02-27T10:38:46.316Z,1007.66
2018-02-27T10:39:46.321Z,1007.71
2018-02-27T10:40:46.328Z,1007.74
2018-02-27T10:41:46.331Z,1007.73
2018-02-27T10:42:46.343Z,1007.73
2018-02-27T10:43:46.354Z,1007.69
2018-02-27T10:44:46.375Z,1007.76
2018-02-27T10:45:46.376Z,1007.71
2018-02-27T10:46:46.401Z,1007.78
2018-02-27T10:47:46.406Z,1007.81
2018-02-27T10:48:46.494Z,1007.78
2018-02-27T10:49:46.430Z,1007.77
2018-02-27T10:50:46.453Z,1007.70
2018-02-27T10:51:46.495Z,1007.75
2018-02-27T10:52:46.461Z,1007.82
2018-02-27T10:53:46.530Z,1007.78
2018-02-27T10:54:46.468Z,1007.79
2018-02-27T10:55:46.481Z,1007.82
2018-02-27T10:56:46.507Z,1007.84
2018-02-27T10:57:46.512Z,1007.89
2018-02-27T10:58:46.534Z,1007.88
2018-02-27T10:59:46.521Z,1007.84
2018-02-27T11:00:46.613Z,1007.78
2018-02-27T11:01:46.544Z,1007.72
2018-02-27T11:02:46.559Z,1007.62
2018-02-27T11:03:46.628Z,1007.51
2018-02-27T11:04:46.581Z,1007.55
2018-02-27T11:05:46.588Z,1007.57
2018-02-27T11:06:46.608Z,1007.54
2018-02-27T11:07:46.614Z,1007.46
2018-02-27T11:08:46.639Z,1007.38
2018-02-27T11:09:46.647Z,1007.52
2018-02-27T11:10:46.635Z,1007.45
2018-02-27T11:11:46.641Z,1007.35
2018-02-27T11:12:46.651Z,1007.28
2018-02-27T11:13:46.685Z,1007.32
2018-02-27T11:14:46.719Z,1007.31
2018-02-27T11:15:46.681Z,1007.39
2018-02-27T11:16:46.741Z,1007.38
2018-02-27T11:17:46.709Z,1007.29
2018-02-27T11:18:46.751Z,1007.18
2018-02-27T11:19:46.734Z,1007.25
2018-02-27T11:20:46.737Z,1007.18
2018-02-27T11:21:46.746Z,1007.19
2018-02-27T11:22:46.769Z,1007.20
2018-02-27T11:23:46.775Z,1007.16
2018-02-27T11:24:46.786Z,1007.16
2018-02-27T11:25:46.809Z,1007.10
2018-02-27T11:26:46.811Z,1007.09
2018-02-27T11:27:46.833Z,1007.14
2018-02-27T11:28:46.820Z,1007.03
2018-02-27T11:29:46.835Z,1007.05
2018-02-27T11:30:46.870Z,1007.01
2018-02-27T11:31:46.852Z,1007.01
2018-02-27T11:32:46.860Z,1007.03
2018-02-27T11:33:46.878Z,1007.00
2018-02-27T11:34:46.944Z,1007.01
2018-02-27T11:35:46.914Z,1007.03
2018-02-27T11:36:46.936Z,1007.01
2018-02-27T11:37:46.928Z,1007.07
2018-02-27T11:38:46.946Z,1007.00
2018-02-27T11:39:46.972Z,1006.91
2018-02-27T11:40:46.955Z,1006.91
2018-02-27T11:41:46.958Z,1006.89
2018-02-27T11:42:46.963Z,1006.87
2018-02-27T11:43:47.044Z,1006.90
2018-02-27T11:44:47.007Z,1006.92
2018-02-27T11:45:47.079Z,1006.91
2018-02-27T11:46:47.036Z,1006.86
2018-02-27T11:47:47.023Z,1006.86
2018-02-27T11:48:47.027Z,1006.80
2018-02-27T11:49:47.050Z,1006.82
2018-02-27T11:50:47.066Z,1006.75
2018-02-27T11:51:47.108Z,1006.76
2018-02-27T11:52:47.074Z,1006.72
2018-02-27T11:53:47.084Z,1006.74
2018-02-27T11:54:47.088Z,1006.71
2018-02-27T11:55:47.106Z,1006.71
2018-02-27T11:56:47.106Z,1006.69
2018-02-27T11:57:47.119Z,1006.66
2018-02-27T11:58:47.139Z,1006.67
2018-02-27T11:59:47.144Z,1006.65
2018-02-27T12:00:47.154Z,1006.67
2018-02-27T12:01:47.164Z,1006.63
2018-02-27T12:02:47.268Z,1006.63
2018-02-27T12:03:47.204Z,1006.61
2018-02-27T12:04:47.203Z,1006.60
2018-02-27T12:05:47.214Z,1006.58